Time,TemperatureF,DewpointF,PressureIn,WindDirection,WindDirectionDegrees,WindSpeedMPH,WindSpeedGustMPH,Humidity,HourlyPrecipIn,Conditions,Clouds,dailyrainin,SolarRadiationWatts/m^2,SoftwareType,DateUTC
2013-07-30 00:03:00,64.0,64.0,-100.00,SSW,212,0.0,2.0,99,0.00,,,0.00,0.000000,,2013-07-30 05:03:00,
2013-07-30 00:13:00,64.0,64.0,-100.00,SSW,212,0.0,2.0,99,0.00,,,0.00,0.000000,,2013-07-30 05:13:00,
2013-07-30 00:45:00,64.0,64.0,-100.00,SE,126,2.0,4.0,100,0.00,,,0.00,0.000000,,2013-07-30 05:45:00,
2013-07-30 00:53:00,64.0,64.0,-100.00,SE,126,2.0,4.0,100,0.00,,,0.00,0.000000,,2013-07-30 05:53:00,
2013-07-30 01:03:00,64.0,64.0,-100.00,SE,126,2.0,4.0,100,0.00,,,0.00,0.000000,,2013-07-30 06:03:00,
2013-07-30 01:13:00,64.0,64.0,-100.00,SE,126,2.0,4.0,100,0.00,,,0.00,0.000000,,2013-07-30 06:13:00,
2013-07-30 01:43:00,64.0,63.0,-100.00,SSW,195,0.0,4.0,98,0.00,,,0.00,0.000000,,2013-07-30 06:43:00,
2013-07-30 01:53:00,64.0,63.0,-100.00,SSW,195,0.0,4.0,98,0.00,,,0.00,0.000000,,2013-07-30 06:53:00,
2013-07-30 02:03:00,64.0,63.0,-100.00,SSW,195,0.0,4.0,98,0.00,,,0.00,0.000000,,2013-07-30 07:03:00,
2013-07-30 02:13:00,64.0,63.0,-100.00,SSW,195,0.0,4.0,98,0.00,,,0.00,0.000000,,2013-07-30 07:13:00,
2013-07-30 02:43:00,63.0,63.0,-100.00,NE,45,2.0,2.0,99,0.00,,,0.00,0.000000,,2013-07-30 07:43:00,
2013-07-30 02:53:00,63.0,63.0,-100.00,NE,45,2.0,2.0,99,0.00,,,0.00,0.000000,,2013-07-30 07:53:00,
2013-07-30 03:03:00,63.0,63.0,-100.00,NE,45,2.0,2.0,99,0.00,,,0.00,0.000000,,2013-07-30 08:03:00,
2013-07-30 03:13:00,63.0,63.0,-100.00,NE,45,2.0,2.0,99,0.00,,,0.00,0.000000,,2013-07-30 08:13:00,
2013-07-30 03:43:00,63.0,63.0,-100.00,East,85,0.0,2.0,100,0.00,,,0.00,0.000000,,2013-07-30 08:43:00,
2013-07-30 03:53:00,63.0,63.0,-100.00,East,85,0.0,2.0,100,0.00,,,0.00,0.000000,,2013-07-30 08:53:00,
2013-07-30 04:03:00,63.0,63.0,-100.00,East,85,0.0,2.0,100,0.00,,,0.00,0.000000,,2013-07-30 09:03:00,
2013-07-30 04:13:00,63.0,63.0,-100.00,East,85,0.0,2.0,100,0.00,,,0.00,0.000000,,2013-07-30 09:13:00,
2013-07-30 04:43:00,63.0,63.0,-100.00,WSW,247,1.0,2.0,100,0.00,,,0.00,0.000000,,2013-07-30 09:43:00,
2013-07-30 04:53:00,63.0,63.0,-100.00,WSW,247,1.0,2.0,100,0.00,,,0.00,0.000000,,2013-07-30 09:53:00,
2013-07-30 05:03:00,63.0,63.0,-100.00,WSW,247,1.0,2.0,100,0.00,,,0.00,0.000000,,2013-07-30 10:03:00,
2013-07-30 05:12:00,63.0,63.0,-100.00,WSW,247,1.0,2.0,100,0.00,,,0.00,0.000000,,2013-07-30 10:12:00,
2013-07-30 05:44:00,63.0,63.0,-100.00,North,11,0.0,2.0,100,0.00,,,0.00,0.000000,,2013-07-30 10:44:00,
2013-07-30 05:52:00,63.0,63.0,-100.00,North,11,0.0,2.0,100,0.00,,,0.00,0.000000,,2013-07-30 10:52:00,
2013-07-30 06:02:00,63.0,63.0,-100.00,North,11,0.0,2.0,100,0.00,,,0.00,0.000000,,2013-07-30 11:02:00,
2013-07-30 06:11:00,63.0,63.0,-100.00,North,11,0.0,2.0,100,0.00,,,0.00,0.000000,,2013-07-30 11:11:00,
2013-07-30 06:43:00,63.0,63.0,-100.00,South,187,0.0,2.0,100,0.00,,,0.00,2.000000,,2013-07-30 11:43:00,
2013-07-30 06:53:00,63.0,63.0,-100.00,South,187,0.0,2.0,100,0.00,,,0.00,2.000000,,2013-07-30 11:53:00,
2013-07-30 07:12:00,63.0,63.0,-100.00,South,187,0.0,2.0,100,0.00,,,0.00,2.000000,,2013-07-30 12:12:00,
2013-07-30 07:42:00,65.0,64.0,-100.00,East,99,2.0,5.0,95,0.00,,,0.00,37.000000,,2013-07-30 12:42:00,
2013-07-30 07:53:00,65.0,64.0,-100.00,East,99,2.0,5.0,95,0.00,,,0.00,37.000000,,2013-07-30 12:53:00,
2013-07-30 08:02:00,65.0,64.0,-100.00,East,99,2.0,5.0,95,0.00,,,0.00,37.000000,,2013-07-30 13:02:00,
2013-07-30 08:12:00,65.0,64.0,-100.00,East,99,2.0,5.0,95,0.00,,,0.00,37.000000,,2013-07-30 13:12:00,
2013-07-30 08:43:00,68.0,64.0,-100.00,ESE,113,4.0,8.0,87,0.00,,,0.00,116.000000,,2013-07-30 13:43:00,
2013-07-30 08:52:00,68.0,64.0,-100.00,ESE,113,4.0,8.0,87,0.00,,,0.00,116.000000,,2013-07-30 13:52:00,
2013-07-30 09:02:00,68.0,64.0,-100.00,ESE,113,4.0,8.0,87,0.00,,,0.00,116.000000,,2013-07-30 14:02:00,
2013-07-30 09:12:00,68.0,64.0,-100.00,ESE,113,4.0,8.0,87,0.00,,,0.00,116.000000,,2013-07-30 14:12:00,
2013-07-30 09:43:00,72.0,64.0,-100.00,ESE,118,4.0,7.0,77,0.00,,,0.00,240.000000,,2013-07-30 14:43:00,
2013-07-30 09:53:00,72.0,64.0,-100.00,ESE,118,4.0,7.0,77,0.00,,,0.00,240.000000,,2013-07-30 14:53:00,
2013-07-30 10:02:00,72.0,64.0,-100.00,ESE,118,4.0,7.0,77,0.00,,,0.00,240.000000,,2013-07-30 15:02:00,
2013-07-30 10:12:00,72.0,64.0,-100.00,ESE,118,4.0,7.0,77,0.00,,,0.00,240.000000,,2013-07-30 15:12:00,
2013-07-30 10:43:00,72.0,65.0,-100.00,NNW,339,3.0,6.0,78,0.00,,,0.00,160.000000,,2013-07-30 15:43:00,
2013-07-30 10:53:00,72.0,65.0,-100.00,NNW,339,3.0,6.0,78,0.00,,,0.00,160.000000,,2013-07-30 15:53:00,
2013-07-30 11:02:00,72.0,65.0,-100.00,NNW,339,3.0,6.0,78,0.00,,,0.00,160.000000,,2013-07-30 16:02:00,
2013-07-30 11:12:00,72.0,65.0,-100.00,NNW,339,3.0,6.0,78,0.00,,,0.00,160.000000,,2013-07-30 16:12:00,
2013-07-30 11:44:00,72.0,68.0,-100.00,East,94,3.0,8.0,86,0.01,,,0.01,167.000000,,2013-07-30 16:44:00,
2013-07-30 11:52:00,72.0,68.0,-100.00,East,94,3.0,8.0,86,0.01,,,0.01,167.000000,,2013-07-30 16:52:00,
2013-07-30 12:02:00,72.0,68.0,-100.00,East,94,3.0,8.0,86,0.01,,,0.01,167.000000,,2013-07-30 17:02:00,
2013-07-30 12:12:00,72.0,68.0,-100.00,East,94,3.0,8.0,86,0.01,,,0.01,167.000000,,2013-07-30 17:12:00,
2013-07-30 12:43:00,74.0,69.0,-100.00,SE,140,1.0,5.0,85,0.00,,,0.01,200.000000,,2013-07-30 17:43:00,
2013-07-30 12:54:00,74.0,69.0,-100.00,SE,140,1.0,5.0,85,0.00,,,0.01,200.000000,,2013-07-30 17:54:00,
2013-07-30 13:03:00,74.0,69.0,-100.00,SE,140,1.0,5.0,85,0.00,,,0.01,200.000000,,2013-07-30 18:03:00,
2013-07-30 13:12:00,74.0,69.0,-100.00,SE,140,1.0,5.0,85,0.00,,,0.01,200.000000,,2013-07-30 18:12:00,
2013-07-30 13:43:00,74.0,71.0,-100.00,SW,234,2.0,5.0,89,0.02,,,0.03,168.000000,,2013-07-30 18:43:00,
2013-07-30 13:52:00,74.0,71.0,-100.00,SW,234,2.0,5.0,89,0.02,,,0.03,168.000000,,2013-07-30 18:52:00,
2013-07-30 14:03:00,74.0,71.0,-100.00,SW,234,2.0,5.0,89,0.02,,,0.03,168.000000,,2013-07-30 19:03:00,
2013-07-30 14:12:00,74.0,71.0,-100.00,SW,234,2.0,5.0,89,0.02,,,0.03,168.000000,,2013-07-30 19:12:00,
2013-07-30 14:44:00,72.0,70.0,-100.00,SW,221,1.0,3.0,94,0.06,,,0.09,96.000000,,2013-07-30 19:44:00,
2013-07-30 14:52:00,72.0,70.0,-100.00,SW,221,1.0,3.0,94,0.06,,,0.09,96.000000,,2013-07-30 19:52:00,
2013-07-30 15:02:00,72.0,70.0,-100.00,SW,221,1.0,3.0,94,0.06,,,0.09,96.000000,,2013-07-30 20:02:00,
2013-07-30 15:12:00,72.0,70.0,-100.00,SW,221,1.0,3.0,94,0.06,,,0.09,96.000000,,2013-07-30 20:12:00,
2013-07-30 15:43:00,74.0,72.0,-100.00,ESE,111,3.0,4.0,93,0.01,,,0.10,201.000000,,2013-07-30 20:43:00,
2013-07-30 15:52:00,74.0,72.0,-100.00,ESE,111,3.0,4.0,93,0.01,,,0.10,201.000000,,2013-07-30 20:52:00,
2013-07-30 16:02:00,74.0,72.0,-100.00,ESE,111,3.0,4.0,93,0.01,,,0.10,201.000000,,2013-07-30 21:02:00,
2013-07-30 16:12:00,74.0,72.0,-100.00,ESE,111,3.0,4.0,93,0.01,,,0.10,201.000000,,2013-07-30 21:12:00,
2013-07-30 16:42:00,72.0,71.0,-100.00,East,88,3.0,4.0,97,0.07,,,0.17,89.000000,,2013-07-30 21:42:00,
2013-07-30 16:53:00,72.0,71.0,-100.00,East,88,3.0,4.0,97,0.07,,,0.17,89.000000,,2013-07-30 21:53:00,
2013-07-30 17:02:00,72.0,71.0,-100.00,East,88,3.0,4.0,97,0.07,,,0.17,89.000000,,2013-07-30 22:02:00,
2013-07-30 17:12:00,72.0,71.0,-100.00,East,88,3.0,4.0,97,0.07,,,0.17,89.000000,,2013-07-30 22:12:00,
2013-07-30 17:43:00,72.0,71.0,-100.00,ESE,108,4.0,7.0,97,0.02,,,0.19,81.000000,,2013-07-30 22:43:00,
2013-07-30 17:53:00,72.0,71.0,-100.00,ESE,108,4.0,7.0,97,0.02,,,0.19,81.000000,,2013-07-30 22:53:00,
2013-07-30 18:02:00,72.0,71.0,-100.00,ESE,108,4.0,7.0,97,0.02,,,0.19,81.000000,,2013-07-30 23:02:00,
2013-07-30 18:12:00,72.0,71.0,-100.00,ESE,108,4.0,7.0,97,0.02,,,0.19,81.000000,,2013-07-30 23:12:00,
2013-07-30 18:42:00,72.0,71.0,-100.00,ESE,109,5.0,8.0,97,0.00,,,0.19,75.000000,,2013-07-30 23:42:00,
2013-07-30 18:53:00,72.0,71.0,-100.00,ESE,109,5.0,8.0,97,0.00,,,0.19,75.000000,,2013-07-30 23:53:00,
2013-07-30 19:02:00,72.0,71.0,-100.00,ESE,109,5.0,8.0,97,0.00,,,0.19,75.000000,,2013-07-31 00:02:00,
2013-07-30 19:12:00,72.0,71.0,-100.00,ESE,109,5.0,8.0,97,0.00,,,0.19,75.000000,,2013-07-31 00:12:00,
2013-07-30 19:43:00,71.0,70.0,-100.00,NE,54,2.0,7.0,98,0.00,,,0.19,26.000000,,2013-07-31 00:43:00,
2013-07-30 19:53:00,71.0,70.0,-100.00,NE,54,2.0,7.0,98,0.00,,,0.19,26.000000,,2013-07-31 00:53:00,
2013-07-30 20:02:00,71.0,70.0,-100.00,NE,54,2.0,7.0,98,0.00,,,0.19,26.000000,,2013-07-31 01:02:00,
2013-07-30 20:12:00,71.0,70.0,-100.00,NE,54,2.0,7.0,98,0.00,,,0.19,26.000000,,2013-07-31 01:12:00,
2013-07-30 20:43:00,71.0,70.0,-100.00,East,99,5.0,12.0,98,0.00,,,0.19,4.000000,,2013-07-31 01:43:00,
2013-07-30 20:52:00,71.0,70.0,-100.00,East,99,5.0,12.0,98,0.00,,,0.19,4.000000,,2013-07-31 01:52:00,
2013-07-30 21:02:00,71.0,70.0,-100.00,East,99,5.0,12.0,98,0.00,,,0.19,4.000000,,2013-07-31 02:02:00,
2013-07-30 21:12:00,71.0,70.0,-100.00,East,99,5.0,12.0,98,0.00,,,0.19,4.000000,,2013-07-31 02:12:00,
2013-07-30 21:43:00,71.0,71.0,-100.00,SE,125,3.0,9.0,99,0.00,,,0.19,0.000000,,2013-07-31 02:43:00,
2013-07-30 21:52:00,71.0,71.0,-100.00,SE,125,3.0,9.0,99,0.00,,,0.19,0.000000,,2013-07-31 02:52:00,
2013-07-30 22:02:00,71.0,71.0,-100.00,SE,125,3.0,9.0,99,0.00,,,0.19,0.000000,,2013-07-31 03:02:00,
2013-07-30 22:12:00,71.0,71.0,-100.00,SE,125,3.0,9.0,99,0.00,,,0.19,0.000000,,2013-07-31 03:12:00,
2013-07-30 22:42:00,70.0,70.0,-100.00,SE,125,2.0,8.0,99,0.00,,,0.19,0.000000,,2013-07-31 03:42:00,
2013-07-30 22:52:00,70.0,70.0,-100.00,SE,125,2.0,8.0,99,0.00,,,0.19,0.000000,,2013-07-31 03:52:00,
2013-07-30 23:02:00,70.0,70.0,-100.00,SE,125,2.0,8.0,99,0.00,,,0.19,0.000000,,2013-07-31 04:02:00,
2013-07-30 23:12:00,70.0,70.0,-100.00,SE,125,2.0,8.0,99,0.00,,,0.19,0.000000,,2013-07-31 04:12:00,
2013-07-30 23:42:00,70.0,70.0,-100.00,SE,140,2.0,4.0,99,0.01,,,0.20,0.000000,,2013-07-31 04:42:00,
2013-07-30 23:52:00,70.0,70.0,-100.00,SE,140,2.0,4.0,99,0.01,,,0.20,0.000000,,2013-07-31 04:52:00,